Time;durP1;ratioP1;P1;durP2;ratioP2;P2;SDS_P1;SDS_P2;PMS_P1;PMS_P2;Temp;Humidity;BMP_temperature;BMP_pressure;BME280_temperature;BME280_humidity;BME280_pressure;Samples;Min_cycle;Max_cycle;Signal;HPM_P1;HPM_P2
2023/06/04 00:00:01;;;;;;;;;;;;;;;15.27;55.59;101096.50;5082455;28;1782;-73
2023/06/04 00:02:28;;;;;;;;;;;;;;;15.23;55.66;101104.25;5081751;28;1972;-72
2023/06/04 00:04:54;;;;;;;;;;;;;;;15.22;55.57;101098.00;5080690;28;1423;-74
2023/06/04 00:07:21;;;;;;;;;;;;;;;15.19;55.76;101101.19;5080421;28;1514;-72
2023/06/04 00:09:48;;;;;;;;;;;;;;;15.21;55.67;101101.78;5065020;28;1400;-73
2023/06/04 00:12:18;;;;;;;;;;;;;;;15.16;55.82;101112.53;5083126;28;1988;-75
2023/06/04 00:14:44;;;;;;;;;;;;;;;15.21;55.49;101122.69;5082409;28;1567;-73
2023/06/04 00:17:11;;;;;;;;;;;;;;;15.16;55.58;101114.41;5078263;28;1532;-73
2023/06/04 00:19:37;;;;;;;;;;;;;;;15.21;55.43;101112.66;5082300;28;1477;-73
2023/06/04 00:22:04;;;;;;;;;;;;;;;15.22;55.30;101118.88;5081824;28;2084;-74
2023/06/04 00:24:41;;;;;;;;;;;;;;;15.17;55.55;101113.34;5083653;28;1533;-72
2023/06/04 00:27:07;;;;;;;;;;;;;;;15.10;55.59;101128.94;5080066;28;1527;-74
2023/06/04 00:29:34;;;;;;;;;;;;;;;15.13;55.56;101115.72;5079425;28;1455;-73
2023/06/04 00:32:00;;;;;;;;;;;;;;;15.27;55.17;101116.31;5082103;28;1920;-73
2023/06/04 00:34:27;;;;;;;;;;;;;;;15.29;54.96;101119.59;5086315;28;1454;-74
2023/06/04 00:36:53;;;;;;;;;;;;;;;15.17;55.27;101124.19;5102002;28;1561;-73
2023/06/04 00:39:20;;;;;;;;;;;;;;;15.13;55.45;101126.56;5102997;27;1581;-74
2023/06/04 00:41:46;;;;;;;;;;;;;;;15.20;55.04;101121.00;5101803;28;2038;-73
2023/06/04 00:44:13;;;;;;;;;;;;;;;15.16;55.06;101117.94;5099689;27;1737;-73
2023/06/04 00:46:39;;;;;;;;;;;;;;;15.18;55.06;101139.44;5099703;28;1447;-73
2023/06/04 00:49:06;;;;;;;;;;;;;;;15.11;55.10;101125.97;5100390;28;1536;-72
2023/06/04 00:51:33;;;;;;;;;;;;;;;14.99;55.51;101120.53;5100980;28;1967;-73
2023/06/04 00:54:01;;;;;;;;;;;;;;;15.03;55.29;101125.47;5100937;28;1624;-73
2023/06/04 00:56:28;;;;;;;;;;;;;;;14.99;55.43;101125.13;5101689;28;1652;-73
2023/06/04 00:58:54;;;;;;;;;;;;;;;14.99;55.29;101128.66;5101550;28;1434;-73
2023/06/04 01:01:22;;;;;;;;;;;;;;;14.99;55.35;101130.56;5095612;27;2011;-73
2023/06/04 01:03:48;;;;;;;;;;;;;;;15.01;55.28;101136.59;5094003;28;1754;-74
2023/06/04 01:06:21;;;;;;;;;;;;;;;15.03;55.16;101139.91;5100984;28;1528;-73
2023/06/04 01:08:47;;;;;;;;;;;;;;;15.00;55.21;101143.09;5099530;28;1514;-74
2023/06/04 01:11:16;;;;;;;;;;;;;;;14.93;55.30;101139.63;5100549;28;2089;-74
2023/06/04 01:13:42;;;;;;;;;;;;;;;14.96;55.05;101144.59;5100521;27;1446;-74
2023/06/04 01:16:09;;;;;;;;;;;;;;;14.97;55.12;101146.22;5098277;28;3140;-74
2023/06/04 01:18:36;;;;;;;;;;;;;;;14.94;55.20;101149.41;5099029;27;3635;-74
2023/06/04 01:21:02;;;;;;;;;;;;;;;14.88;55.31;101143.06;5097824;27;1979;-74
2023/06/04 01:23:34;;;;;;;;;;;;;;;14.87;55.32;101146.00;5098566;28;2574;-74
2023/06/04 01:26:02;;;;;;;;;;;;;;;14.84;55.28;101151.91;5101105;28;1545;-74
2023/06/04 01:28:29;;;;;;;;;;;;;;;14.87;55.23;101154.13;5099839;28;1548;-73
2023/06/04 01:30:56;;;;;;;;;;;;;;;14.82;55.23;101160.25;5098936;28;1891;-75
2023/06/04 01:33:22;;;;;;;;;;;;;;;14.82;55.21;101159.44;5085498;28;1907;-75
2023/06/04 01:35:49;;;;;;;;;;;;;;;14.77;55.34;101155.53;5081087;28;2484;-73
2023/06/04 01:38:15;;;;;;;;;;;;;;;14.76;55.18;101167.47;5078860;28;1380;-73
2023/06/04 01:40:42;;;;;;;;;;;;;;;14.80;55.19;101153.44;5079590;28;1928;-73
2023/06/04 01:43:09;;;;;;;;;;;;;;;14.72;55.25;101158.13;5081122;28;1922;-74
2023/06/04 01:45:35;;;;;;;;;;;;;;;14.76;55.05;101164.75;5077668;28;1459;-74
2023/06/04 01:48:02;;;;;;;;;;;;;;;14.71;55.39;101161.91;5078897;28;1650;-73
2023/06/04 01:50:28;;;;;;;;;;;;;;;14.75;55.25;101170.38;5061358;28;2160;-73
2023/06/04 01:52:55;;;;;;;;;;;;;;;14.73;55.01;101169.78;5076797;28;2155;-73
2023/06/04 01:55:21;;;;;;;;;;;;;;;14.75;55.17;101168.50;5079667;28;2215;-74
2023/06/04 01:57:48;;;;;;;;;;;;;;;14.73;54.96;101172.50;5078237;28;2277;-73
2023/06/04 02:00:14;;;;;;;;;;;;;;;14.66;55.15;101166.34;5059944;28;1981;-73
2023/06/04 02:02:42;;;;;;;;;;;;;;;14.64;55.34;101171.16;5069311;28;1987;-75
2023/06/04 02:05:08;;;;;;;;;;;;;;;14.67;55.26;101176.94;5077081;28;4081;-73
2023/06/04 02:07:38;;;;;;;;;;;;;;;14.74;55.02;101180.41;5079115;28;3428;-73
2023/06/04 02:10:06;;;;;;;;;;;;;;;14.65;55.13;101180.97;5079802;28;2497;-73
2023/06/04 02:12:35;;;;;;;;;;;;;;;14.62;55.10;101184.13;5079026;28;1491;-73
2023/06/04 02:15:02;;;;;;;;;;;;;;;14.61;55.17;101177.88;5078809;28;1635;-74
2023/06/04 02:17:32;;;;;;;;;;;;;;;14.57;55.15;101182.13;5074752;28;1518;-74
2023/06/04 02:19:58;;;;;;;;;;;;;;;14.68;54.80;101188.66;5078929;28;2081;-74
2023/06/04 02:22:25;;;;;;;;;;;;;;;14.63;54.94;101194.75;5077526;28;2632;-74
2023/06/04 02:24:51;;;;;;;;;;;;;;;14.64;54.93;101184.72;5077567;28;1648;-73
2023/06/04 02:27:18;;;;;;;;;;;;;;;14.73;54.54;101186.88;5077369;28;1666;-74
2023/06/04 02:29:44;;;;;;;;;;;;;;;14.60;54.73;101187.09;5063180;28;2028;-74
2023/06/04 02:32:11;;;;;;;;;;;;;;;14.59;54.95;101193.56;5077082;28;1434;-74
2023/06/04 02:34:38;;;;;;;;;;;;;;;14.73;54.40;101199.59;5078685;28;1969;-74
2023/06/04 02:37:10;;;;;;;;;;;;;;;14.63;54.67;101202.06;5074230;28;1476;-75
2023/06/04 02:39:46;;;;;;;;;;;;;;;14.61;54.63;101196.03;5079965;28;2029;-74
2023/06/04 02:42:13;;;;;;;;;;;;;;;14.76;54.14;101204.56;5077980;28;2034;-74
2023/06/04 02:44:40;;;;;;;;;;;;;;;14.59;54.51;101212.53;5079978;28;1689;-74
2023/06/04 02:47:06;;;;;;;;;;;;;;;14.82;53.99;101211.75;5072718;28;1555;-74
2023/06/04 02:49:33;;;;;;;;;;;;;;;14.72;54.23;101206.91;5080204;28;1951;-75
2023/06/04 02:52:00;;;;;;;;;;;;;;;14.74;54.06;101207.53;5078950;28;2012;-75
2023/06/04 02:54:26;;;;;;;;;;;;;;;14.54;54.67;101215.13;5062351;28;1579;-74
2023/06/04 02:56:53;;;;;;;;;;;;;;;14.63;54.39;101224.56;5079257;28;1538;-74
2023/06/04 02:59:20;;;;;;;;;;;;;;;14.68;54.11;101226.59;5080115;28;1488;-74
2023/06/04 03:01:46;;;;;;;;;;;;;;;14.66;54.07;101234.13;5060066;28;1985;-74
2023/06/04 03:04:15;;;;;;;;;;;;;;;14.80;53.91;101246.44;5080377;28;1609;-74
2023/06/04 03:06:44;;;;;;;;;;;;;;;14.64;54.18;101250.59;5079402;28;1419;-74
2023/06/04 03:09:13;;;;;;;;;;;;;;;14.59;54.16;101252.34;5077734;28;1521;-74
2023/06/04 03:11:39;;;;;;;;;;;;;;;14.63;53.94;101251.69;5062209;28;2060;-74
2023/06/04 03:14:06;;;;;;;;;;;;;;;14.51;54.24;101253.47;5057973;28;1740;-74
2023/06/04 03:16:33;;;;;;;;;;;;;;;14.54;54.13;101253.88;5059290;28;1628;-74
2023/06/04 03:18:59;;;;;;;;;;;;;;;14.52;54.15;101258.69;5060766;28;1535;-75
2023/06/04 03:21:26;;;;;;;;;;;;;;;14.46;54.35;101267.72;5066841;28;2107;-74
2023/06/04 03:23:52;;;;;;;;;;;;;;;14.53;54.23;101265.78;5076830;28;1625;-73
2023/06/04 03:26:19;;;;;;;;;;;;;;;14.49;54.30;101277.28;5080643;28;1698;-74
2023/06/04 03:28:49;;;;;;;;;;;;;;;14.49;54.30;101280.81;5077772;28;1984;-75
2023/06/04 03:31:26;;;;;;;;;;;;;;;14.46;54.31;101281.25;5078265;28;1461;-74
2023/06/04 03:33:52;;;;;;;;;;;;;;;14.49;54.04;101278.09;5081151;28;1887;-73
2023/06/04 03:36:19;;;;;;;;;;;;;;;14.01;53.95;101203.03;5083999;28;1484;-74
2023/06/04 03:38:45;;;;;;;;;;;;;;;14.58;53.62;101278.63;5080574;28;1992;-75
2023/06/04 03:41:12;;;;;;;;;;;;;;;14.51;53.87;101277.88;5064875;28;1673;-75
2023/06/04 03:43:38;;;;;;;;;;;;;;;14.46;53.99;101283.97;5081657;28;1918;-75
2023/06/04 03:46:05;;;;;;;;;;;;;;;14.46;54.13;101285.84;5062331;28;3494;-74
2023/06/04 03:48:31;;;;;;;;;;;;;;;14.50;53.61;101277.06;5079202;28;4289;-74
2023/06/04 03:50:58;;;;;;;;;;;;;;;14.44;54.02;101286.09;5081680;28;1637;-75
2023/06/04 03:53:27;;;;;;;;;;;;;;;14.48;54.03;101286.47;5083414;28;2420;-74
2023/06/04 03:55:55;;;;;;;;;;;;;;;14.35;54.38;101294.75;5081812;28;1566;-73
2023/06/04 03:58:22;;;;;;;;;;;;;;;14.47;53.98;101298.34;5082310;28;1952;-76
2023/06/04 04:00:48;;;;;;;;;;;;;;;14.35;54.23;101309.13;5081391;28;1622;-76
2023/06/04 04:03:15;;;;;;;;;;;;;;;14.36;54.02;101308.06;5082391;28;1969;-74
2023/06/04 04:05:42;;;;;;;;;;;;;;;14.40;54.03;101305.75;5081627;28;2384;-74
2023/06/04 04:08:08;;;;;;;;;;;;;;;14.38;54.07;101302.41;5061268;28;1980;-75
2023/06/04 04:10:35;;;;;;;;;;;;;;;14.41;53.78;101312.81;5080951;28;1939;-74
2023/06/04 04:13:01;;;;;;;;;;;;;;;14.44;53.61;101310.50;5084151;28;1392;-73
2023/06/04 04:15:28;;;;;;;;;;;;;;;14.38;53.95;101315.97;5080322;28;1536;-74
2023/06/04 04:17:54;;;;;;;;;;;;;;;14.41;53.63;101316.38;5081537;28;1431;-74
2023/06/04 04:20:21;;;;;;;;;;;;;;;14.37;53.71;101317.84;5082751;28;1964;-74
2023/06/04 04:22:49;;;;;;;;;;;;;;;14.34;53.91;101315.59;5077726;28;1918;-73
2023/06/04 04:25:20;;;;;;;;;;;;;;;14.40;53.72;101317.41;5081211;28;1752;-73
2023/06/04 04:27:48;;;;;;;;;;;;;;;14.29;53.97;101316.28;5065986;28;1499;-74
2023/06/04 04:30:16;;;;;;;;;;;;;;;14.35;53.81;101324.56;5082124;28;1912;-74
2023/06/04 04:32:48;;;;;;;;;;;;;;;14.35;53.74;101319.94;5074707;28;1533;-73
2023/06/04 04:35:18;;;;;;;;;;;;;;;14.24;54.01;101328.84;5099290;28;3407;-75
2023/06/04 04:37:44;;;;;;;;;;;;;;;14.30;53.81;101328.78;5100364;28;3679;-74
2023/06/04 04:40:12;;;;;;;;;;;;;;;14.23;54.02;101324.47;5101157;28;2395;-75
2023/06/04 04:42:38;;;;;;;;;;;;;;;14.34;53.55;101331.84;5102423;28;1973;-75
2023/06/04 04:45:07;;;;;;;;;;;;;;;14.23;54.04;101333.41;5083958;28;1639;-75
2023/06/04 04:47:33;;;;;;;;;;;;;;;14.19;53.94;101332.22;5096463;28;1931;-75
2023/06/04 04:50:00;;;;;;;;;;;;;;;14.16;53.79;101338.09;5101344;28;1457;-75
2023/06/04 04:52:27;;;;;;;;;;;;;;;14.16;54.03;101338.09;5082358;28;2401;-75
2023/06/04 04:54:55;;;;;;;;;;;;;;;14.17;53.96;101334.31;5101868;28;1493;-76
2023/06/04 04:57:22;;;;;;;;;;;;;;;14.18;53.84;101333.28;5098066;28;1875;-73
2023/06/04 04:59:58;;;;;;;;;;;;;;;14.21;53.90;101349.09;5099155;28;1478;-73
2023/06/04 05:02:25;;;;;;;;;;;;;;;14.17;53.82;101338.91;5099706;28;1973;-73
2023/06/04 05:04:52;;;;;;;;;;;;;;;14.13;53.87;101346.66;5101652;28;1426;-75
2023/06/04 05:07:19;;;;;;;;;;;;;;;14.16;53.83;101335.38;5098194;28;2141;-74
2023/06/04 05:09:46;;;;;;;;;;;;;;;14.18;53.82;101330.59;5102105;28;1493;-76
2023/06/04 05:12:12;;;;;;;;;;;;;;;14.15;53.85;101341.00;5099677;28;1545;-73
2023/06/04 05:14:39;;;;;;;;;;;;;;;14.12;53.94;101341.47;5101816;28;1509;-75
2023/06/04 05:17:10;;;;;;;;;;;;;;;14.16;53.79;101351.63;5098828;28;2119;-74
2023/06/04 05:19:37;;;;;;;;;;;;;;;14.17;53.79;101352.47;5096955;28;1621;-75
2023/06/04 05:22:06;;;;;;;;;;;;;;;14.19;53.63;101356.59;5091987;28;2704;-74
2023/06/04 05:24:33;;;;;;;;;;;;;;;14.15;53.59;101351.84;5080104;28;1579;-75
2023/06/04 05:27:00;;;;;;;;;;;;;;;14.20;53.61;101350.13;5093850;28;1969;-75
2023/06/04 05:29:26;;;;;;;;;;;;;;;14.10;53.80;101349.81;5099849;28;1611;-74
2023/06/04 05:31:56;;;;;;;;;;;;;;;14.14;53.71;101353.72;5092238;28;1829;-75
2023/06/04 05:34:26;;;;;;;;;;;;;;;14.23;53.45;101359.69;5081617;28;1637;-75
2023/06/04 05:36:57;;;;;;;;;;;;;;;14.27;53.24;101358.22;5080976;28;2065;-75
2023/06/04 05:39:23;;;;;;;;;;;;;;;14.20;53.47;101357.44;5082695;28;1085;-74
2023/06/04 05:41:50;;;;;;;;;;;;;;;14.11;53.80;101364.19;5077467;28;1981;-74
2023/06/04 05:44:19;;;;;;;;;;;;;;;14.09;53.50;101365.25;5077741;28;1952;-75
2023/06/04 05:46:45;;;;;;;;;;;;;;;14.15;53.57;101363.53;5077473;28;1463;-75
2023/06/04 05:49:12;;;;;;;;;;;;;;;14.11;53.53;101364.19;5080739;28;1427;-74
2023/06/04 05:51:39;;;;;;;;;;;;;;;14.16;53.46;101373.31;5070902;28;2149;-74
2023/06/04 05:54:05;;;;;;;;;;;;;;;14.11;53.43;101370.44;5068113;28;1991;-74
2023/06/04 05:56:32;;;;;;;;;;;;;;;14.12;53.38;101373.97;5050459;28;1706;-74
2023/06/04 05:58:58;;;;;;;;;;;;;;;14.07;53.58;101370.06;5068535;28;1595;-74
2023/06/04 06:01:30;;;;;;;;;;;;;;;14.04;53.60;101367.78;5065978;28;3396;-73
2023/06/04 06:03:57;;;;;;;;;;;;;;;14.04;53.68;101375.94;5067533;28;2041;-74
2023/06/04 06:06:25;;;;;;;;;;;;;;;14.06;53.64;101381.13;5065292;28;2342;-74
2023/06/04 06:08:52;;;;;;;;;;;;;;;14.08;53.55;101379.84;5070918;28;1491;-75
2023/06/04 06:11:29;;;;;;;;;;;;;;;14.05;53.76;101379.47;5072725;28;1471;-75
2023/06/04 06:13:57;;;;;;;;;;;;;;;14.17;53.38;101383.09;5049198;28;1949;-76
2023/06/04 06:16:27;;;;;;;;;;;;;;;14.14;53.40;101383.53;5078279;28;3605;-75
2023/06/04 06:18:53;;;;;;;;;;;;;;;14.05;53.33;101377.56;5080348;28;1281;-74
2023/06/04 06:21:20;;;;;;;;;;;;;;;14.06;53.42;101375.72;5063011;28;1178;-75
2023/06/04 06:23:47;;;;;;;;;;;;;;;14.05;53.57;101372.16;5080411;28;1952;-75
2023/06/04 06:26:15;;;;;;;;;;;;;;;14.04;53.39;101375.09;5081236;28;1105;-74
2023/06/04 06:28:42;;;;;;;;;;;;;;;14.03;53.58;101381.53;5080631;28;1446;-74
2023/06/04 06:31:08;;;;;;;;;;;;;;;14.12;53.32;101377.53;5077145;28;3950;-74
2023/06/04 06:33:40;;;;;;;;;;;;;;;14.07;53.44;101388.19;5077513;28;1945;-76
2023/06/04 06:36:07;;;;;;;;;;;;;;;14.04;53.50;101391.34;5069502;28;2522;-74
2023/06/04 06:38:34;;;;;;;;;;;;;;;14.07;53.32;101389.03;5073866;28;2420;-73
2023/06/04 06:41:00;;;;;;;;;;;;;;;14.05;53.56;101398.41;5081194;28;1350;-74
2023/06/04 06:43:27;;;;;;;;;;;;;;;14.03;53.21;101392.38;5064858;28;2089;-74
2023/06/04 06:45:54;;;;;;;;;;;;;;;14.06;53.20;101392.78;5080369;28;1054;-74
2023/06/04 06:48:20;;;;;;;;;;;;;;;14.11;53.26;101388.56;5063251;28;2282;-74
2023/06/04 06:50:46;;;;;;;;;;;;;;;14.05;53.47;101401.13;5080851;28;2255;-76
2023/06/04 06:53:13;;;;;;;;;;;;;;;14.05;53.22;101390.28;5080864;28;2214;-72
2023/06/04 06:55:40;;;;;;;;;;;;;;;14.02;53.20;101396.97;5076613;28;1441;-75
2023/06/04 06:58:06;;;;;;;;;;;;;;;14.02;53.39;101404.28;5080615;28;1483;-76
2023/06/04 07:00:35;;;;;;;;;;;;;;;14.05;53.30;101398.41;5073551;28;1478;-75
2023/06/04 07:03:02;;;;;;;;;;;;;;;14.09;53.26;101405.88;5068637;28;2017;-75
2023/06/04 07:05:31;;;;;;;;;;;;;;;14.07;53.18;101405.28;5069132;28;1625;-73
2023/06/04 07:07:58;;;;;;;;;;;;;;;14.03;53.32;101406.78;5073780;28;1528;-73
2023/06/04 07:10:25;;;;;;;;;;;;;;;14.04;53.42;101402.19;5072922;28;1787;-74
2023/06/04 07:12:52;;;;;;;;;;;;;;;14.01;53.37;101408.88;5076089;28;1909;-75
2023/06/04 07:15:18;;;;;;;;;;;;;;;14.27;52.78;101407.81;5057452;28;1433;-75
2023/06/04 07:17:45;;;;;;;;;;;;;;;14.08;53.02;101398.78;5072485;28;1592;-74
2023/06/04 07:20:11;;;;;;;;;;;;;;;14.03;53.16;101406.78;5074445;28;1435;-74
2023/06/04 07:22:38;;;;;;;;;;;;;;;14.21;52.72;101403.28;5052593;28;2044;-73
2023/06/04 07:25:05;;;;;;;;;;;;;;;14.07;53.16;101401.75;5072344;28;2004;-74
2023/06/04 07:27:31;;;;;;;;;;;;;;;14.05;53.05;101399.25;5061007;28;1500;-74
2023/06/04 07:29:58;;;;;;;;;;;;;;;14.05;53.07;101393.00;5084112;28;1403;-73
2023/06/04 07:32:35;;;;;;;;;;;;;;;14.04;53.13;101391.34;5073265;28;1948;-74
2023/06/04 07:35:05;;;;;;;;;;;;;;;13.97;53.43;101386.00;5071258;28;1550;-75
2023/06/04 07:37:32;;;;;;;;;;;;;;;14.02;53.32;101399.69;5072974;28;1551;-73
2023/06/04 07:39:58;;;;;;;;;;;;;;;14.09;52.91;101408.59;5085113;28;1355;-75
2023/06/04 07:42:25;;;;;;;;;;;;;;;14.05;53.30;101406.53;5066120;28;1954;-72
2023/06/04 07:44:51;;;;;;;;;;;;;;;14.04;53.24;101413.03;5075474;28;3606;-75
2023/06/04 07:47:18;;;;;;;;;;;;;;;14.02;53.16;101409.69;5051684;28;1549;-74
2023/06/04 07:49:44;;;;;;;;;;;;;;;14.02;53.46;101407.81;5070325;28;3600;-75
2023/06/04 07:52:11;;;;;;;;;;;;;;;14.16;53.00;101405.00;5075061;28;2081;-74
2023/06/04 07:54:41;;;;;;;;;;;;;;;14.27;52.70;101399.69;5077291;28;1526;-74
2023/06/04 07:57:08;;;;;;;;;;;;;;;14.31;52.50;101400.06;5078785;28;1740;-74
2023/06/04 07:59:35;;;;;;;;;;;;;;;14.12;52.95;101401.91;5054903;28;1665;-74
2023/06/04 08:02:11;;;;;;;;;;;;;;;14.39;52.38;101405.19;5068688;28;2807;-74
2023/06/04 08:04:38;;;;;;;;;;;;;;;14.45;51.95;101400.75;5080168;28;1979;-74
2023/06/04 08:07:05;;;;;;;;;;;;;;;14.25;52.38;101395.53;5065852;28;2393;-75
2023/06/04 08:09:31;;;;;;;;;;;;;;;14.10;53.08;101404.00;5082503;28;1326;-75
2023/06/04 08:11:57;;;;;;;;;;;;;;;14.06;52.98;101400.09;5081751;28;2129;-73
2023/06/04 08:14:26;;;;;;;;;;;;;;;14.40;52.09;101401.41;5083028;28;2197;-73
2023/06/04 08:16:53;;;;;;;;;;;;;;;14.53;51.93;101386.94;5081645;28;1610;-74
2023/06/04 08:19:19;;;;;;;;;;;;;;;14.71;51.24;101394.25;5076273;28;3708;-74
2023/06/04 08:21:47;;;;;;;;;;;;;;;14.65;51.21;101397.84;5068063;28;2670;-74
2023/06/04 08:24:13;;;;;;;;;;;;;;;14.62;51.09;101395.56;5077363;28;1967;-74
2023/06/04 08:26:40;;;;;;;;;;;;;;;14.72;51.00;101398.59;5070647;28;2583;-75
2023/06/04 08:29:13;;;;;;;;;;;;;;;14.59;51.44;101401.44;5074662;28;2260;-74
2023/06/04 08:31:40;;;;;;;;;;;;;;;14.39;51.94;101388.91;5067653;28;3483;-73
2023/06/04 08:34:06;;;;;;;;;;;;;;;14.23;52.75;101392.19;5071493;28;1652;-73
2023/06/04 08:36:33;;;;;;;;;;;;;;;14.36;52.37;101396.69;5070056;28;2388;-73
2023/06/04 08:39:01;;;;;;;;;;;;;;;14.39;52.29;101386.22;5068699;28;1631;-72
2023/06/04 08:41:27;;;;;;;;;;;;;;;14.20;52.88;101389.94;5069531;28;3326;-73
2023/06/04 08:43:54;;;;;;;;;;;;;;;14.06;53.21;101387.38;5071544;28;1918;-74
2023/06/04 08:46:20;;;;;;;;;;;;;;;14.04;53.38;101392.19;5080740;28;1431;-75
2023/06/04 08:48:47;;;;;;;;;;;;;;;14.03;53.58;101390.53;5081167;28;1515;-75
2023/06/04 08:51:18;;;;;;;;;;;;;;;14.04;53.37;101383.22;5083484;28;1989;-73
2023/06/04 08:53:49;;;;;;;;;;;;;;;14.02;53.60;101380.72;5082564;28;1438;-75
2023/06/04 08:56:17;;;;;;;;;;;;;;;14.04;53.60;101386.75;5065520;28;1390;-76
2023/06/04 08:58:43;;;;;;;;;;;;;;;14.04;53.48;101373.22;5081781;28;1368;-75
2023/06/04 09:01:10;;;;;;;;;;;;;;;14.05;53.60;101369.44;5077928;28;2014;-75
2023/06/04 09:03:37;;;;;;;;;;;;;;;14.06;53.56;101378.44;5075688;28;1971;-75
2023/06/04 09:06:03;;;;;;;;;;;;;;;14.06;53.55;101381.97;5081621;28;915;-76
2023/06/04 09:08:30;;;;;;;;;;;;;;;14.07;53.50;101374.66;5080986;28;1416;-76
2023/06/04 09:10:56;;;;;;;;;;;;;;;14.07;53.62;101386.31;5081953;28;1940;-74
2023/06/04 09:13:28;;;;;;;;;;;;;;;14.08;53.52;101376.31;5077277;28;3585;-73
2023/06/04 09:15:59;;;;;;;;;;;;;;;14.09;53.44;101375.28;5069846;28;3519;-77
2023/06/04 09:18:26;;;;;;;;;;;;;;;14.08;53.73;101374.41;5055966;28;1573;-74
2023/06/04 09:20:53;;;;;;;;;;;;;;;14.09;53.40;101369.84;5069772;28;2529;-73
2023/06/04 09:23:21;;;;;;;;;;;;;;;14.09;53.36;101356.31;5078635;28;1910;-73
2023/06/04 09:25:48;;;;;;;;;;;;;;;14.10;53.48;101366.06;5082029;28;1360;-76
2023/06/04 09:28:16;;;;;;;;;;;;;;;14.11;53.33;101361.50;5079211;28;1287;-73
2023/06/04 09:30:42;;;;;;;;;;;;;;;14.11;53.50;101365.03;5081021;28;1936;-75
2023/06/04 09:33:09;;;;;;;;;;;;;;;14.11;53.25;101366.91;5082011;28;2554;-75
2023/06/04 09:35:36;;;;;;;;;;;;;;;14.12;53.37;101361.28;5076299;28;1506;-73
2023/06/04 09:38:03;;;;;;;;;;;;;;;14.15;53.50;101355.41;5079462;28;1461;-74
2023/06/04 09:40:29;;;;;;;;;;;;;;;14.14;53.44;101351.03;5082139;28;1968;-74
2023/06/04 09:42:58;;;;;;;;;;;;;;;14.14;53.79;101363.75;5081726;28;1905;-76
2023/06/04 09:45:26;;;;;;;;;;;;;;;14.14;53.79;101361.88;5078252;28;1383;-74
2023/06/04 09:47:53;;;;;;;;;;;;;;;14.16;53.69;101361.66;5055759;28;2050;-74
2023/06/04 09:50:20;;;;;;;;;;;;;;;14.16;53.43;101358.94;5071419;28;1413;-75
2023/06/04 09:52:47;;;;;;;;;;;;;;;14.16;53.67;101348.09;5045973;28;1445;-75
2023/06/04 09:55:13;;;;;;;;;;;;;;;14.18;53.57;101351.44;5066324;28;1509;-75
2023/06/04 09:57:40;;;;;;;;;;;;;;;14.19;53.54;101347.66;5068967;28;2074;-75
2023/06/04 10:00:11;;;;;;;;;;;;;;;14.19;53.06;101347.66;5045114;28;1390;-73
2023/06/04 10:02:38;;;;;;;;;;;;;;;14.19;53.38;101356.59;5071255;28;1499;-74
2023/06/04 10:05:08;;;;;;;;;;;;;;;14.20;53.07;101355.53;5068398;28;1906;-73
2023/06/04 10:07:35;;;;;;;;;;;;;;;14.21;53.34;101348.28;5046276;28;1805;-73
2023/06/04 10:10:02;;;;;;;;;;;;;;;14.21;53.65;101343.69;5068158;28;1501;-75
2023/06/04 10:12:29;;;;;;;;;;;;;;;13.77;53.68;101266.22;5065008;28;1448;-75
2023/06/04 10:15:05;;;;;;;;;;;;;;;14.23;53.80;101335.31;5066392;28;1493;-73
2023/06/04 10:17:32;;;;;;;;;;;;;;;14.23;53.61;101341.53;5065112;28;1877;-74
2023/06/04 10:19:59;;;;;;;;;;;;;;;14.23;53.67;101325.28;5063536;28;1527;-75
2023/06/04 10:22:25;;;;;;;;;;;;;;;14.24;53.80;101326.16;5065967;28;1556;-75
2023/06/04 10:24:52;;;;;;;;;;;;;;;14.26;53.45;101318.59;5069533;28;1914;-74
2023/06/04 10:27:20;;;;;;;;;;;;;;;14.27;53.65;101321.09;5064016;28;2077;-75
2023/06/04 10:29:46;;;;;;;;;;;;;;;14.28;53.61;101321.91;5054278;28;1587;-74
2023/06/04 10:32:13;;;;;;;;;;;;;;;14.29;53.79;101318.16;5079638;28;1391;-74
2023/06/04 10:34:39;;;;;;;;;;;;;;;14.30;53.75;101325.25;5069241;28;1531;-74
2023/06/04 10:37:06;;;;;;;;;;;;;;;13.93;53.57;101262.91;5066961;28;1995;-75
2023/06/04 10:39:33;;;;;;;;;;;;;;;14.31;53.78;101321.47;5069904;28;1593;-74
2023/06/04 10:42:05;;;;;;;;;;;;;;;14.32;53.98;101315.84;5067044;28;1458;-74
2023/06/04 10:44:32;;;;;;;;;;;;;;;14.34;53.57;101312.06;5062288;28;2004;-74
2023/06/04 10:46:58;;;;;;;;;;;;;;;14.33;53.89;101311.25;5065431;28;1941;-75
2023/06/04 10:49:25;;;;;;;;;;;;;;;14.34;53.75;101307.47;5043422;28;1973;-74
2023/06/04 10:51:51;;;;;;;;;;;;;;;14.36;53.73;101312.69;5066554;28;1421;-74
2023/06/04 10:54:18;;;;;;;;;;;;;;;14.35;53.70;101311.81;5065986;28;1405;-74
2023/06/04 10:56:45;;;;;;;;;;;;;;;14.37;53.86;101312.44;5065572;28;1932;-75
2023/06/04 10:59:11;;;;;;;;;;;;;;;14.38;53.95;101319.50;5066319;28;1418;-75
2023/06/04 11:01:38;;;;;;;;;;;;;;;14.39;53.98;101321.19;5061258;28;3598;-73
2023/06/04 11:04:10;;;;;;;;;;;;;;;14.40;54.09;101314.69;5044961;28;1977;-75
2023/06/04 11:06:36;;;;;;;;;;;;;;;14.41;54.13;101310.09;5068202;28;2632;-76
2023/06/04 11:09:03;;;;;;;;;;;;;;;14.43;54.13;101313.41;5061557;28;1441;-76
2023/06/04 11:11:29;;;;;;;;;;;;;;;14.42;54.25;101304.47;5063898;28;1566;-75
2023/06/04 11:13:56;;;;;;;;;;;;;;;14.43;54.10;101318.84;5065179;28;1737;-78
2023/06/04 11:16:23;;;;;;;;;;;;;;;14.45;53.94;101328.41;5065133;28;1501;-74
2023/06/04 11:18:49;;;;;;;;;;;;;;;14.48;54.16;101324.41;5067761;28;2408;-74
2023/06/04 11:21:21;;;;;;;;;;;;;;;14.48;54.30;101311.69;5046271;28;1981;-75
2023/06/04 11:23:48;;;;;;;;;;;;;;;14.48;54.21;101308.97;5062076;28;1910;-74
2023/06/04 11:26:16;;;;;;;;;;;;;;;14.49;54.25;101307.91;5065739;28;1588;-76
2023/06/04 11:28:42;;;;;;;;;;;;;;;14.50;54.05;101306.88;5061609;28;3444;-74
2023/06/04 11:31:19;;;;;;;;;;;;;;;14.51;54.38;101304.97;5075480;28;3416;-73
2023/06/04 11:33:45;;;;;;;;;;;;;;;14.51;54.31;101303.13;5079239;28;2358;-74
2023/06/04 11:36:12;;;;;;;;;;;;;;;14.53;54.36;101309.16;5075572;28;1426;-73
2023/06/04 11:38:38;;;;;;;;;;;;;;;14.54;54.18;101307.28;5062473;28;1820;-74
2023/06/04 11:41:06;;;;;;;;;;;;;;;14.56;54.25;101301.59;5063561;28;1858;-74
2023/06/04 11:43:33;;;;;;;;;;;;;;;14.54;54.36;101297.25;5065220;28;1905;-77
2023/06/04 11:45:59;;;;;;;;;;;;;;;14.57;54.44;101301.38;5043864;28;2507;-75
2023/06/04 11:48:26;;;;;;;;;;;;;;;14.58;54.21;101305.75;5064845;28;1512;-75
2023/06/04 11:50:52;;;;;;;;;;;;;;;14.60;54.51;101310.94;5062862;28;1944;-75
2023/06/04 11:53:20;;;;;;;;;;;;;;;14.60;54.34;101300.94;5065380;28;1499;-75
2023/06/04 11:55:47;;;;;;;;;;;;;;;14.62;54.33;101301.53;5065875;28;1752;-75
2023/06/04 11:58:14;;;;;;;;;;;;;;;14.63;54.55;101295.06;5050369;28;1519;-74
2023/06/04 12:00:40;;;;;;;;;;;;;;;14.63;54.48;101305.91;5064012;28;1877;-75
2023/06/04 12:03:07;;;;;;;;;;;;;;;14.66;54.59;101302.72;5054002;28;1833;-75
2023/06/04 12:05:33;;;;;;;;;;;;;;;14.67;54.64;101295.41;5066634;28;1914;-74
2023/06/04 12:08:00;;;;;;;;;;;;;;;14.68;54.65;101295.19;5070202;28;1668;-74
2023/06/04 12:10:37;;;;;;;;;;;;;;;14.70;54.66;101294.97;5065508;28;2036;-74
2023/06/04 12:13:03;;;;;;;;;;;;;;;14.71;54.74;101293.91;5067233;28;1773;-74
2023/06/04 12:15:30;;;;;;;;;;;;;;;14.64;54.79;101274.19;5067959;28;1969;-76
2023/06/04 12:17:56;;;;;;;;;;;;;;;14.73;54.82;101286.38;5069976;28;1753;-74
2023/06/04 12:20:23;;;;;;;;;;;;;;;14.73;54.85;101292.59;5067523;28;1477;-74
2023/06/04 12:22:52;;;;;;;;;;;;;;;14.29;54.51;101217.91;5065249;28;1768;-75
2023/06/04 12:25:28;;;;;;;;;;;;;;;14.75;54.97;101285.09;5079958;28;1987;-74
2023/06/04 12:28:05;;;;;;;;;;;;;;;14.76;54.74;101286.75;5070505;28;1410;-74
2023/06/04 12:30:31;;;;;;;;;;;;;;;14.79;54.71;101290.88;5062554;28;2015;-75
2023/06/04 12:32:58;;;;;;;;;;;;;;;14.80;54.87;101292.53;5076160;28;1380;-74
2023/06/04 12:35:25;;;;;;;;;;;;;;;14.81;54.96;101293.38;5089923;28;1516;-75
2023/06/04 12:37:51;;;;;;;;;;;;;;;14.82;54.96;101289.59;5088142;27;1960;-75
2023/06/04 12:40:18;;;;;;;;;;;;;;;14.62;54.95;101260.88;5066268;28;1591;-75
2023/06/04 12:42:46;;;;;;;;;;;;;;;14.84;54.91;101282.88;5084897;28;1702;-75
2023/06/04 12:45:15;;;;;;;;;;;;;;;14.85;54.92;101281.81;5087125;28;1914;-74
2023/06/04 12:47:43;;;;;;;;;;;;;;;14.87;55.02;101281.59;5069796;28;1557;-75